KCEY/CEY METAR and TAF weather

Enter ICAO airport designator
Station Type Date Time Source
KCEY METAR 2018/09/21 23:35 UTC NOAA

KCEY 212335Z AUTO 32005KT 10SM CLR 29/20 A3002 RMK AO1


Station Type Date Time Source
KCEY Decoded METAR 2018/09/21 23:35 UTC NOAA

Station name not available
Sep 21, 2018 - 07:35 PM EDT / 2018.09.21 2335 UTC
Wind: from the NW (320 degrees) at 6 MPH (5 KT):0
Visibility: 10 mile(s):0
Sky conditions: clear
Temperature: 84 F (29 C)
Dew Point: 68 F (20 C)
Relative Humidity: 58%
Pressure (altimeter): 30.02 in. Hg (1016 hPa)
ob: KCEY 212335Z AUTO 32005KT 10SM CLR 29/20 A3002 RMK AO1
cycle: 23

Station Type Date Time Source
KCEY TAF UTC NOAA

Error!


Example: see airport list